Hanover, IN (47243)

12:31 PM EST on February 14, 2016 (GMT -0500)
4-H Fairground area | | Change Station
CLOSE
Current Station
Personal Weather Station
Location: Hanover, IN
Elevation: 791 ft
Nearby Weather Stations
Active Advisory: Winter Weather Advisory

Elev 791 ft 38.74 °N, 85.46 °W | Updated 2 minutes ago

Overcast
Overcast
18.5 °F
Feels Like 7 °F
N
10.4
Wind Variable Wind from East

Today
High -- | Low -- °F
--% Chance of Precip.
Yesterday
High -- | Low -- °F
Precip. -- in
Pressure 30.35 in
Visibility 10.0 miles
Clouds Overcast 6000 ft
Windchill 7 °F
Dew Point 18 °F
Humidity 99%
Rainfall 0.00 in
Snow Depth Not available.
7:34 AM 6:18 PM
Waxing Crescent, 43% visible
METAR KLOU 141653Z 10010G17KT 10SM OVC060 M07/M12 A3032 RMK AO2 SLP276 T10671122
Pressure 30.35 in
Visibility 10.0 miles
Clouds Overcast 6000 ft
Windchill 7 °F
Dew Point 18 °F
Humidity 99%
Rainfall 0.00 in
Snow Depth Not available.
7:34 AM 6:18 PM
Waxing Crescent, 43% visible
METAR KLOU 141653Z 10010G17KT 10SM OVC060 M07/M12 A3032 RMK AO2 SLP276 T10671122

10-Day Weather Forecast

Almanac

Astronomy

Feb. 14, 2016 Rise Set
Actual Time
Civil Twilight
Nautical Twilight
Astronomical Twilight
Moon
Length of Visible Light
Length of Day
Tomorrow will be .
, % of the Moon is Illuminated

Today's Extremes

State Highs State Lows

Community

WunderPhotos

Upload Photos

1,892,859 photos uploaded!

WunderBlog® & News

Nearby

Air Quality

  Air Quality AQ Index Pollutant
Not available.

Snow Depth

Station Depth Elevation

Earthquake Activity

City Distance Mag. Time & Date
Minimum magnitude displayed is 2.5.

Coastal Water Temperatures

Place Temperature

Stations

Nearby Weather Stations

Station Location Temp. Windchill Dew Point Humidity Wind Precip. Elev Updated Type
                   

Watches & Warnings

Winter Weather Advisory
Issued: 11:45 AM EST Feb. 14, 2016 – National Weather Service

... Winter Weather Advisory remains in effect until 10 am EST
Monday...

* timing... accumulating snows will develop by mid afternoon and
continue through this evening.

* Accumulations... 2 to 4 inches... with locally higher amounts
possible.

* Impacts... there is a chance of a brief period of freezing
drizzle late Sunday night before transitioning to drizzle or
rain Monday morning.

Precautionary/preparedness actions...

A Winter Weather Advisory for snow means that periods of snow
will cause primarily travel difficulties. Be prepared for snow
covered roads and limited visibilities... and use caution while
driving.